Traunik, Michigan
Current Conditions -  °F | °C
As of 10:53 AM on Tuesday 21 Oct 2014 (Local Time) from KSAW Reporting Station
Overcast Overcast  
Wind Chill: 33°   Ceiling: 2400
Heat Index: 41°   Visibility: 10mi
Dew Point: 34°   Wind: 14mph
Humidity: 76%   Direction: 10°N
Pressure: 30.24"   Gusts: NA
Location:  46.2203°N, 86.9431°W
Report Text: KSAW 211453Z 01012KT 10SM SCT016 OVC024 05/01 A3024
Loading
Personal Weather Stations






























Interactive Weather Map
Tropical Storm Tracking
New forecast layout! Learn more

10-Day Weather Forecast

Advertisements
Track Severe Weather on mobile